createdAt,value
2022-08-17T00:02:25.836Z,42.53
2022-08-17T00:05:32.804Z,42.08
2022-08-17T00:08:48.768Z,42.72
2022-08-17T00:12:40.366Z,44.58
2022-08-17T00:15:15.641Z,42.75
2022-08-17T00:19:06.197Z,43.53
2022-08-17T00:22:32.988Z,42.53
2022-08-17T00:25:09.908Z,44.15
2022-08-17T00:28:12.496Z,42.35
2022-08-17T00:31:14.836Z,43.58
2022-08-17T00:34:17.162Z,40.40
2022-08-17T00:37:19.159Z,42.78
2022-08-17T00:40:21.730Z,45.10
2022-08-17T00:43:34.424Z,45.05
2022-08-17T00:46:41.061Z,43.72
2022-08-17T00:49:43.963Z,48.53
2022-08-17T00:52:56.042Z,46.95
2022-08-17T00:56:01.675Z,46.22
2022-08-17T00:59:07.352Z,42.90
2022-08-17T01:02:12.557Z,44.63
2022-08-17T01:05:23.410Z,43.35
2022-08-17T01:08:29.964Z,40.78
2022-08-17T01:11:33.235Z,41.47
2022-08-17T01:17:37.808Z,41.83
2022-08-17T01:20:48.900Z,45.70
2022-08-17T01:23:51.209Z,47.22
2022-08-17T01:26:53.757Z,55.28
2022-08-17T01:30:02.971Z,53.40
2022-08-17T01:33:05.738Z,68.30
2022-08-17T01:36:08.700Z,59.45
2022-08-17T01:39:23.356Z,58.55
2022-08-17T01:42:36.792Z,52.58
2022-08-17T01:48:47.662Z,53.90
2022-08-17T01:51:50.061Z,55.00
2022-08-17T01:54:53.254Z,52.87
2022-08-17T02:01:00.721Z,52.03
2022-08-17T02:04:06.531Z,52.05
2022-08-17T02:07:08.518Z,53.60
2022-08-17T02:10:19.791Z,51.13
2022-08-17T02:13:22.229Z,51.60
2022-08-17T02:16:24.137Z,48.15
2022-08-17T02:19:26.161Z,47.22
2022-08-17T02:22:29.117Z,49.75
2022-08-17T02:25:33.767Z,49.40
2022-08-17T02:28:36.118Z,49.83
2022-08-17T02:31:38.143Z,48.27
2022-08-17T02:34:40.057Z,51.47
2022-08-17T02:37:44.688Z,53.90
2022-08-17T02:40:53.799Z,53.08
2022-08-17T02:43:55.770Z,54.75
2022-08-17T02:46:57.719Z,53.15
2022-08-17T02:49:59.709Z,55.65
2022-08-17T02:53:02.869Z,53.70
2022-08-17T02:56:07.162Z,57.20
2022-08-17T02:59:09.063Z,51.05
2022-08-17T03:02:12.135Z,49.08
2022-08-17T03:05:17.049Z,51.15
2022-08-17T03:08:19.904Z,49.00
2022-08-17T03:11:22.033Z,50.85
2022-08-17T03:14:26.004Z,46.15
2022-08-17T03:17:28.289Z,48.88
2022-08-17T03:20:32.550Z,46.92
2022-08-17T03:23:40.914Z,41.38
2022-08-17T03:26:44.196Z,45.03
2022-08-17T03:32:49.644Z,41.47
2022-08-17T03:35:51.933Z,47.08
2022-08-17T03:38:53.893Z,42.70
2022-08-17T03:42:31.135Z,44.35
2022-08-17T03:45:52.482Z,43.10
2022-08-17T03:49:13.744Z,46.45
2022-08-17T03:52:34.010Z,45.05
2022-08-17T03:55:56.055Z,45.78
2022-08-17T03:58:58.343Z,44.42
2022-08-17T04:02:11.128Z,44.43
2022-08-17T04:05:15.052Z,43.53
2022-08-17T04:08:16.939Z,40.92
2022-08-17T04:11:18.880Z,40.50
2022-08-17T04:14:21.095Z,40.45
2022-08-17T04:17:27.513Z,43.42
2022-08-17T04:20:29.917Z,42.60
2022-08-17T04:23:34.035Z,42.93
2022-08-17T04:26:53.914Z,42.97
2022-08-17T04:29:56.638Z,41.97
2022-08-17T04:33:06.370Z,43.75
2022-08-17T04:36:09.150Z,42.78
2022-08-17T04:39:11.363Z,42.70
2022-08-17T04:42:17.344Z,44.90
2022-08-17T04:45:19.322Z,45.22
2022-08-17T04:48:21.513Z,46.35
2022-08-17T04:51:30.683Z,45.85
2022-08-17T04:54:32.708Z,43.97
2022-08-17T04:57:39.418Z,44.58
2022-08-17T05:00:44.057Z,43.08
2022-08-17T05:03:46.036Z,42.80
2022-08-17T05:06:50.361Z,46.72
2022-08-17T05:09:52.284Z,44.53
2022-08-17T05:13:02.078Z,43.15
2022-08-17T05:16:04.676Z,44.65
2022-08-17T05:19:06.710Z,46.22
2022-08-17T05:22:08.677Z,42.50
2022-08-17T05:25:10.647Z,44.63
2022-08-17T05:28:13.145Z,40.92
2022-08-17T05:31:16.093Z,40.80
2022-08-17T05:34:17.981Z,42.05
2022-08-17T05:37:19.996Z,39.67
2022-08-17T05:40:22.676Z,38.78
2022-08-17T05:43:34.224Z,39.75
2022-08-17T05:46:41.790Z,38.03
2022-08-17T05:49:43.919Z,38.03
2022-08-17T05:56:29.646Z,37.42
2022-08-17T06:00:08.124Z,36.30
2022-08-17T06:03:28.725Z,33.45
2022-08-17T06:06:53.581Z,35.17
2022-08-17T06:10:03.665Z,35.67
2022-08-17T06:13:17.868Z,37.15
2022-08-17T06:16:34.479Z,34.67
2022-08-17T06:19:45.840Z,33.17
2022-08-17T06:22:56.769Z,33.20
2022-08-17T06:26:05.722Z,32.47
2022-08-17T06:29:35.463Z,33.45
2022-08-17T06:32:39.995Z,30.88
2022-08-17T06:36:09.228Z,29.98
2022-08-17T06:39:32.430Z,28.30
2022-08-17T06:42:54.910Z,29.17
2022-08-17T06:46:16.381Z,30.85
2022-08-17T06:49:38.754Z,28.98
2022-08-17T06:53:15.617Z,28.58
2022-08-17T06:57:02.551Z,29.08
2022-08-17T07:00:13.767Z,29.05
2022-08-17T07:03:35.839Z,27.55
2022-08-17T07:06:47.669Z,26.60
2022-08-17T07:09:51.170Z,25.15
2022-08-17T07:12:58.428Z,22.40
2022-08-17T07:16:25.934Z,21.48
2022-08-17T07:19:31.848Z,25.13
2022-08-17T07:22:59.740Z,23.73
2022-08-17T07:26:09.638Z,20.10
2022-08-17T07:29:16.381Z,20.23
2022-08-17T07:32:24.236Z,18.75
2022-08-17T07:35:37.852Z,20.58
2022-08-17T07:38:57.082Z,20.10
2022-08-17T07:42:04.546Z,19.67
2022-08-17T07:45:28.500Z,23.02
2022-08-17T07:48:35.919Z,25.92
2022-08-17T07:51:42.527Z,29.40
2022-08-17T07:54:44.482Z,24.83
2022-08-17T07:57:57.340Z,26.95
2022-08-17T08:01:10.336Z,25.35
2022-08-17T08:08:28.672Z,22.48
2022-08-17T08:11:36.537Z,21.92
2022-08-17T08:14:39.825Z,21.92
2022-08-17T08:17:57.592Z,21.55
2022-08-17T08:21:04.960Z,24.52
2022-08-17T08:24:12.766Z,17.75
2022-08-17T08:27:33.143Z,18.20
2022-08-17T08:30:41.574Z,15.18
2022-08-17T08:33:46.200Z,16.02
2022-08-17T08:37:12.911Z,16.35
2022-08-17T08:40:41.231Z,16.48
2022-08-17T08:45:00.010Z,18.63
2022-08-17T08:48:05.593Z,17.98
2022-08-17T08:51:39.812Z,17.30
2022-08-17T08:55:22.534Z,18.08
2022-08-17T08:58:32.121Z,18.37
2022-08-17T09:02:03.656Z,17.98
2022-08-17T09:05:14.196Z,18.52
2022-08-17T09:08:25.636Z,17.70
2022-08-17T09:12:02.911Z,18.42
2022-08-17T09:15:22.087Z,17.00
2022-08-17T09:19:00.555Z,18.40
2022-08-17T09:22:17.610Z,16.50
2022-08-17T09:25:29.061Z,18.17
2022-08-17T09:28:36.470Z,16.52
2022-08-17T09:31:49.529Z,16.95
2022-08-17T09:34:55.025Z,16.17
2022-08-17T09:38:15.256Z,16.70
2022-08-17T09:41:20.951Z,15.32
2022-08-17T09:44:55.339Z,15.82
2022-08-17T09:48:08.335Z,15.13
2022-08-17T09:54:40.544Z,14.85
2022-08-17T09:58:09.503Z,14.02
2022-08-17T10:01:43.388Z,13.68
2022-08-17T10:05:13.811Z,13.98
2022-08-17T10:08:25.630Z,12.50
2022-08-17T10:12:17.790Z,15.65
2022-08-17T10:15:52.299Z,11.95
2022-08-17T10:18:54.179Z,11.80
2022-08-17T10:22:34.652Z,11.10
2022-08-17T10:26:14.811Z,10.52
2022-08-17T10:29:24.459Z,11.07
2022-08-17T10:32:45.092Z,10.60
2022-08-17T10:36:11.254Z,10.77
2022-08-17T10:39:23.098Z,10.82
2022-08-17T10:42:32.944Z,10.45
2022-08-17T10:45:47.159Z,9.27
2022-08-17T10:49:11.926Z,9.73
2022-08-17T10:52:30.514Z,10.55
2022-08-17T10:55:32.429Z,11.32
2022-08-17T10:58:55.031Z,10.17
2022-08-17T11:02:15.251Z,10.95
2022-08-17T11:05:40.166Z,10.02
2022-08-17T11:09:00.955Z,10.52
2022-08-17T11:12:43.485Z,10.45
2022-08-17T11:16:08.107Z,11.05
2022-08-17T11:19:37.471Z,10.82
2022-08-17T11:22:58.083Z,9.55
2022-08-17T11:26:08.263Z,11.13
2022-08-17T11:29:24.785Z,9.43
2022-08-17T11:32:59.068Z,11.13
2022-08-17T11:36:31.650Z,10.45
2022-08-17T11:40:01.702Z,9.85
2022-08-17T11:43:15.691Z,10.15
2022-08-17T11:46:23.313Z,10.07
2022-08-17T11:49:58.743Z,10.35
2022-08-17T11:53:00.974Z,10.35
2022-08-17T11:56:04.878Z,10.05
2022-08-17T11:59:40.075Z,10.52
2022-08-17T12:02:48.187Z,9.98
2022-08-17T12:06:01.762Z,9.25
2022-08-17T12:09:07.128Z,9.90
2022-08-17T12:12:20.148Z,10.70
2022-08-17T12:18:35.677Z,10.88
2022-08-17T12:21:41.975Z,11.38
2022-08-17T12:24:56.750Z,10.65
2022-08-17T12:28:05.008Z,11.20
2022-08-17T12:31:21.997Z,10.30
2022-08-17T12:34:29.037Z,10.80
2022-08-17T12:37:35.732Z,10.27
2022-08-17T12:40:38.747Z,10.85
2022-08-17T12:43:40.671Z,11.32
2022-08-17T12:46:53.940Z,10.70
2022-08-17T12:50:08.350Z,11.00
2022-08-17T12:53:35.208Z,10.70
2022-08-17T12:56:37.272Z,11.38
2022-08-17T12:59:50.430Z,11.23
2022-08-17T13:03:02.594Z,10.48
2022-08-17T13:06:07.680Z,11.63
2022-08-17T13:09:35.310Z,11.30
2022-08-17T13:12:42.006Z,10.38
2022-08-17T13:15:59.521Z,12.50
2022-08-17T13:19:16.300Z,10.95
2022-08-17T13:22:23.753Z,10.48
2022-08-17T13:25:28.220Z,10.95
2022-08-17T13:28:36.375Z,10.10
2022-08-17T13:31:52.249Z,10.95
2022-08-17T13:35:15.315Z,10.00
2022-08-17T13:38:39.580Z,10.13
2022-08-17T13:41:41.719Z,11.15
2022-08-17T13:44:43.685Z,10.38
2022-08-17T13:47:45.582Z,10.03
2022-08-17T13:50:56.669Z,9.93
2022-08-17T13:54:01.901Z,9.45
2022-08-17T13:57:17.890Z,10.23
2022-08-17T14:00:32.517Z,11.35
2022-08-17T14:03:34.496Z,10.90
2022-08-17T14:07:08.661Z,11.80
2022-08-17T14:10:12.829Z,11.02
2022-08-17T14:13:15.431Z,11.98
2022-08-17T14:16:17.466Z,11.18
2022-08-17T14:19:22.115Z,10.30
2022-08-17T14:22:31.909Z,10.95
2022-08-17T14:25:33.841Z,11.23
2022-08-17T14:28:36.507Z,9.95
2022-08-17T14:31:39.070Z,9.80
2022-08-17T14:34:43.588Z,9.50
2022-08-17T14:37:48.157Z,11.15
2022-08-17T14:40:50.348Z,10.35
2022-08-17T14:43:53.504Z,9.73
2022-08-17T14:46:55.783Z,6.97
2022-08-17T14:49:59.269Z,9.10
2022-08-17T14:53:03.846Z,10.43
2022-08-17T14:56:06.008Z,7.13
2022-08-17T14:59:08.011Z,6.67
2022-08-17T15:02:10.843Z,5.75
2022-08-17T15:05:14.450Z,5.97
2022-08-17T15:08:19.578Z,6.95
2022-08-17T15:11:21.688Z,8.45
2022-08-17T15:14:23.635Z,11.27
2022-08-17T15:17:25.592Z,12.38
2022-08-17T15:20:48.680Z,14.38
2022-08-17T15:23:51.204Z,15.20
2022-08-17T15:26:53.147Z,8.02
2022-08-17T15:29:55.119Z,5.70
2022-08-17T15:32:59.571Z,5.43
2022-08-17T15:36:06.606Z,4.25
2022-08-17T15:39:08.771Z,4.07
2022-08-17T15:42:10.748Z,4.43
2022-08-17T15:45:14.276Z,5.85
2022-08-17T15:48:16.270Z,6.85
2022-08-17T15:51:28.110Z,7.53
2022-08-17T15:54:31.707Z,8.50
2022-08-17T15:57:36.772Z,10.55
2022-08-17T16:00:48.267Z,9.57
2022-08-17T16:04:05.012Z,10.65
2022-08-17T16:07:14.275Z,11.70
2022-08-17T16:13:23.824Z,23.63
2022-08-17T16:16:26.456Z,10.52
2022-08-17T16:19:28.555Z,10.68
2022-08-17T16:22:42.711Z,12.27
2022-08-17T16:25:53.085Z,9.15
2022-08-17T16:28:56.979Z,7.63
2022-08-17T16:32:07.003Z,7.07
2022-08-17T16:35:12.022Z,7.43
2022-08-17T16:38:13.950Z,8.98
2022-08-17T16:41:36.226Z,9.60
2022-08-17T16:44:38.201Z,10.52
2022-08-17T16:47:42.103Z,11.20
2022-08-17T16:51:02.085Z,10.68
2022-08-17T16:54:07.398Z,12.13
2022-08-17T16:57:13.850Z,12.77
2022-08-17T17:00:16.998Z,12.10
2022-08-17T17:10:07.797Z,14.93
2022-08-17T17:13:28.708Z,17.17
2022-08-17T17:16:59.994Z,18.45
2022-08-17T17:20:10.614Z,18.13
2022-08-17T17:23:33.712Z,15.93
2022-08-17T17:26:55.385Z,16.00
2022-08-17T17:30:13.752Z,15.18
2022-08-17T17:33:29.027Z,14.93
2022-08-17T17:36:51.548Z,15.55
2022-08-17T17:39:57.504Z,16.45
2022-08-17T17:43:20.457Z,16.27
2022-08-17T17:49:36.063Z,16.35
2022-08-17T17:52:45.341Z,17.35
2022-08-17T17:56:04.784Z,17.90
2022-08-17T17:59:43.296Z,19.00
2022-08-17T18:03:11.214Z,20.58
2022-08-17T18:06:47.179Z,23.98
2022-08-17T18:09:55.568Z,25.92
2022-08-17T18:13:15.991Z,23.52
2022-08-17T18:16:19.289Z,21.10
2022-08-17T18:19:22.556Z,19.33
2022-08-17T18:22:24.973Z,22.48
2022-08-17T18:25:47.928Z,24.10
2022-08-17T18:28:51.973Z,26.17
2022-08-17T18:32:17.833Z,25.00
2022-08-17T18:35:19.743Z,25.45
2022-08-17T18:38:33.989Z,27.88
2022-08-17T18:41:44.815Z,26.30
2022-08-17T18:44:47.517Z,27.77
2022-08-17T18:47:55.968Z,27.45
2022-08-17T18:51:21.347Z,28.95
2022-08-17T18:58:32.061Z,29.35
2022-08-17T19:02:16.040Z,28.70
2022-08-17T19:05:39.613Z,31.17
2022-08-17T19:08:42.087Z,33.03
2022-08-17T19:11:44.488Z,36.58
2022-08-17T19:14:46.767Z,33.40
2022-08-17T19:18:21.607Z,33.35
2022-08-17T19:21:38.144Z,33.25
2022-08-17T19:24:47.707Z,30.35
2022-08-17T19:28:02.440Z,33.45
2022-08-17T19:31:13.748Z,35.55
2022-08-17T19:34:17.232Z,36.03
2022-08-17T19:38:12.689Z,36.92
2022-08-17T19:41:21.876Z,36.47
2022-08-17T19:44:32.742Z,37.58
2022-08-17T19:48:13.967Z,37.83
2022-08-17T19:51:24.821Z,38.80
2022-08-17T19:54:34.109Z,37.80
2022-08-17T19:58:03.312Z,41.35
2022-08-17T20:01:10.597Z,38.22
2022-08-17T20:04:34.791Z,38.72
2022-08-17T20:07:48.199Z,38.72
2022-08-17T20:14:12.607Z,40.17
2022-08-17T20:17:14.567Z,40.38
2022-08-17T20:20:29.728Z,43.13
2022-08-17T20:23:52.694Z,40.70
2022-08-17T20:27:31.972Z,41.73
2022-08-17T20:30:37.648Z,38.95
2022-08-17T20:33:39.790Z,40.50
2022-08-17T20:37:02.315Z,42.55
2022-08-17T20:40:04.408Z,44.35
2022-08-17T20:43:36.227Z,45.70
2022-08-17T20:46:39.572Z,43.25
2022-08-17T20:49:47.721Z,44.45
2022-08-17T20:52:52.688Z,43.78
2022-08-17T20:55:55.786Z,44.65
2022-08-17T21:02:18.476Z,43.97
2022-08-17T21:05:58.839Z,41.47
2022-08-17T21:09:15.753Z,39.05
2022-08-17T21:13:04.384Z,41.08
2022-08-17T21:16:30.161Z,46.00
2022-08-17T21:19:34.991Z,39.47
2022-08-17T21:23:19.757Z,42.10
2022-08-17T21:26:34.096Z,45.78
2022-08-17T21:30:12.400Z,40.20
2022-08-17T21:33:17.139Z,41.30
2022-08-17T21:36:24.880Z,41.63
2022-08-17T21:39:39.701Z,44.95
2022-08-17T21:42:58.241Z,44.45
2022-08-17T21:46:07.057Z,45.35
2022-08-17T21:49:13.668Z,40.70
2022-08-17T21:52:18.113Z,42.50
2022-08-17T21:55:29.493Z,41.70
2022-08-17T21:58:48.257Z,40.33
2022-08-17T22:01:55.994Z,37.53
2022-08-17T22:05:08.247Z,38.90
2022-08-17T22:08:20.361Z,37.08
2022-08-17T22:11:22.929Z,36.72
2022-08-17T22:14:53.444Z,38.80
2022-08-17T22:17:56.164Z,39.47
2022-08-17T22:21:02.575Z,39.65
2022-08-17T22:24:15.391Z,38.53
2022-08-17T22:27:19.287Z,39.95
2022-08-17T22:30:36.854Z,38.10
2022-08-17T22:33:52.510Z,38.08
2022-08-17T22:37:28.502Z,38.17
2022-08-17T22:40:33.356Z,39.15
2022-08-17T22:43:38.695Z,38.30
2022-08-17T22:46:57.939Z,39.15
2022-08-17T22:50:11.931Z,38.72
2022-08-17T22:53:36.320Z,38.55
2022-08-17T22:57:05.422Z,34.15
2022-08-17T23:00:37.381Z,35.97
2022-08-17T23:03:57.497Z,36.53
2022-08-17T23:06:59.485Z,40.08
2022-08-17T23:10:06.341Z,37.85
2022-08-17T23:13:11.927Z,38.55
2022-08-17T23:16:15.106Z,46.85
2022-08-17T23:22:23.668Z,45.30
2022-08-17T23:25:31.067Z,44.90
2022-08-17T23:28:37.041Z,45.85
2022-08-17T23:31:39.989Z,47.25
2022-08-17T23:34:44.745Z,45.72
2022-08-17T23:37:47.994Z,44.55
2022-08-17T23:40:50.015Z,47.08
2022-08-17T23:43:53.625Z,48.53
2022-08-17T23:46:55.989Z,48.92
2022-08-17T23:49:57.923Z,45.67
2022-08-17T23:53:05.524Z,41.88
2022-08-17T23:56:11.071Z,41.97
2022-08-17T23:59:15.415Z,46.03
